sensor_id;sensor_type;location;lat;lon;timestamp;pressure;altitude;pressure_sealevel;temperature;humidity
46778;BME280;32536;47.128;8.746;2023-12-20T00:02:09;91763.28;;;7.47;53.99
46778;BME280;32536;47.128;8.746;2023-12-20T00:04:35;91759.47;;;7.41;54.32
46778;BME280;32536;47.128;8.746;2023-12-20T00:07:02;91747.66;;;7.34;54.58
46778;BME280;32536;47.128;8.746;2023-12-20T00:09:29;91738.53;;;7.32;54.32
46778;BME280;32536;47.128;8.746;2023-12-20T00:11:56;91740.44;;;7.31;54.35
46778;BME280;32536;47.128;8.746;2023-12-20T00:14:23;91714.16;;;7.37;54.98
46778;BME280;32536;47.128;8.746;2023-12-20T00:16:49;91713.41;;;7.40;54.63
46778;BME280;32536;47.128;8.746;2023-12-20T00:19:16;91730.94;;;7.41;54.12
46778;BME280;32536;47.128;8.746;2023-12-20T00:21:43;91722.16;;;7.37;53.93
46778;BME280;32536;47.128;8.746;2023-12-20T00:24:09;91724.47;;;7.39;53.79
46778;BME280;32536;47.128;8.746;2023-12-20T00:26:36;91716.06;;;7.40;54.00
46778;BME280;32536;47.128;8.746;2023-12-20T00:29:03;91712.63;;;7.43;54.42
46778;BME280;32536;47.128;8.746;2023-12-20T00:31:30;91708.06;;;7.47;54.26
46778;BME280;32536;47.128;8.746;2023-12-20T00:33:56;91716.81;;;7.48;54.22
46778;BME280;32536;47.128;8.746;2023-12-20T00:36:23;91720.63;;;7.47;53.88
46778;BME280;32536;47.128;8.746;2023-12-20T00:38:50;91723.69;;;7.45;54.31
46778;BME280;32536;47.128;8.746;2023-12-20T00:41:17;91727.13;;;7.42;54.13
46778;BME280;32536;47.128;8.746;2023-12-20T00:43:44;91721.78;;;7.39;53.98
46778;BME280;32536;47.128;8.746;2023-12-20T00:46:11;91724.47;;;7.28;54.71
46778;BME280;32536;47.128;8.746;2023-12-20T00:48:37;91724.44;;;7.17;54.20
46778;BME280;32536;47.128;8.746;2023-12-20T00:51:04;91722.53;;;7.07;54.55
46778;BME280;32536;47.128;8.746;2023-12-20T00:53:31;91719.50;;;6.97;54.97
46778;BME280;32536;47.128;8.746;2023-12-20T00:55:57;91723.28;;;6.85;54.77
46778;BME280;32536;47.128;8.746;2023-12-20T00:58:24;91723.63;;;6.73;55.16
46778;BME280;32536;47.128;8.746;2023-12-20T01:00:52;91717.16;;;6.63;54.81
46778;BME280;32536;47.128;8.746;2023-12-20T01:03:19;91714.09;;;6.57;54.97
46778;BME280;32536;47.128;8.746;2023-12-20T01:05:46;91717.88;;;6.56;55.03
46778;BME280;32536;47.128;8.746;2023-12-20T01:08:12;91724.75;;;6.61;54.81
46778;BME280;32536;47.128;8.746;2023-12-20T01:10:39;91720.59;;;6.71;54.54
46778;BME280;32536;47.128;8.746;2023-12-20T01:13:06;91728.19;;;6.76;54.50
46778;BME280;32536;47.128;8.746;2023-12-20T01:15:34;91730.50;;;6.85;54.13
46778;BME280;32536;47.128;8.746;2023-12-20T01:18:01;91743.47;;;6.94;54.37
46778;BME280;32536;47.128;8.746;2023-12-20T01:20:28;91750.34;;;7.05;53.69
46778;BME280;32536;47.128;8.746;2023-12-20T01:22:55;91749.94;;;7.03;53.06
46778;BME280;32536;47.128;8.746;2023-12-20T01:25:21;91743.84;;;7.03;52.07
46778;BME280;32536;47.128;8.746;2023-12-20T01:27:48;91750.34;;;7.05;52.44
46778;BME280;32536;47.128;8.746;2023-12-20T01:30:15;91739.28;;;7.03;52.16
46778;BME280;32536;47.128;8.746;2023-12-20T01:32:42;91752.59;;;7.03;51.79
46778;BME280;32536;47.128;8.746;2023-12-20T01:35:09;91753.72;;;6.99;51.27
46778;BME280;32536;47.128;8.746;2023-12-20T01:37:37;91752.22;;;7.05;51.41
46778;BME280;32536;47.128;8.746;2023-12-20T01:40:04;91747.28;;;7.11;51.11
46778;BME280;32536;47.128;8.746;2023-12-20T01:42:31;91746.50;;;7.10;50.97
46778;BME280;32536;47.128;8.746;2023-12-20T01:44:58;91746.91;;;7.09;49.15
46778;BME280;32536;47.128;8.746;2023-12-20T01:47:25;91744.63;;;7.11;49.84
46778;BME280;32536;47.128;8.746;2023-12-20T01:49:53;91741.56;;;7.19;49.28
46778;BME280;32536;47.128;8.746;2023-12-20T01:52:20;91743.84;;;7.21;48.21
46778;BME280;32536;47.128;8.746;2023-12-20T01:54:47;91746.53;;;7.35;49.63
46778;BME280;32536;47.128;8.746;2023-12-20T01:57:15;91734.72;;;7.40;46.42
46778;BME280;32536;47.128;8.746;2023-12-20T01:59:42;91739.66;;;7.52;48.99
46778;BME280;32536;47.128;8.746;2023-12-20T02:02:08;91744.22;;;7.66;48.97
46778;BME280;32536;47.128;8.746;2023-12-20T02:04:38;91746.13;;;7.84;49.57
46778;BME280;32536;47.128;8.746;2023-12-20T02:07:05;91740.38;;;8.00;49.47
46778;BME280;32536;47.128;8.746;2023-12-20T02:09:33;91734.59;;;8.16;50.21
46778;BME280;32536;47.128;8.746;2023-12-20T02:12:00;91732.63;;;8.31;50.67
46778;BME280;32536;47.128;8.746;2023-12-20T02:14:27;91726.88;;;8.43;50.09
46778;BME280;32536;47.128;8.746;2023-12-20T02:16:53;91725.31;;;8.53;50.35
46778;BME280;32536;47.128;8.746;2023-12-20T02:19:20;91724.53;;;8.63;50.59
46778;BME280;32536;47.128;8.746;2023-12-20T02:21:47;91730.59;;;8.71;50.75
46778;BME280;32536;47.128;8.746;2023-12-20T02:24:14;91723.34;;;8.72;51.02
46778;BME280;32536;47.128;8.746;2023-12-20T02:26:41;91708.44;;;8.74;49.96
46778;BME280;32536;47.128;8.746;2023-12-20T02:29:08;91705.75;;;8.78;50.36
46778;BME280;32536;47.128;8.746;2023-12-20T02:31:34;91706.09;;;8.80;50.83
46778;BME280;32536;47.128;8.746;2023-12-20T02:34:01;91707.63;;;8.81;50.37
46778;BME280;32536;47.128;8.746;2023-12-20T02:36:28;91713.75;;;8.81;50.80
46778;BME280;32536;47.128;8.746;2023-12-20T02:38:55;91723.28;;;8.86;51.01
46778;BME280;32536;47.128;8.746;2023-12-20T02:41:21;91719.81;;;8.89;51.18
46778;BME280;32536;47.128;8.746;2023-12-20T02:43:48;91719.03;;;8.92;51.33
46778;BME280;32536;47.128;8.746;2023-12-20T02:46:15;91710.59;;;8.97;51.26
46778;BME280;32536;47.128;8.746;2023-12-20T02:48:43;91701.44;;;8.99;51.36
46778;BME280;32536;47.128;8.746;2023-12-20T02:51:09;91703.72;;;8.96;51.27
46778;BME280;32536;47.128;8.746;2023-12-20T02:53:36;91701.81;;;8.97;51.12
46778;BME280;32536;47.128;8.746;2023-12-20T02:56:03;91712.88;;;8.99;50.75
46778;BME280;32536;47.128;8.746;2023-12-20T02:58:30;91703.31;;;8.98;51.40
46778;BME280;32536;47.128;8.746;2023-12-20T03:00:57;91714.41;;;9.00;51.12
46778;BME280;32536;47.128;8.746;2023-12-20T03:03:24;91714.00;;;9.02;51.34
46778;BME280;32536;47.128;8.746;2023-12-20T03:05:50;91711.31;;;9.02;51.28
46778;BME280;32536;47.128;8.746;2023-12-20T03:08:18;91710.56;;;9.01;51.32
46778;BME280;32536;47.128;8.746;2023-12-20T03:10:44;91714.38;;;9.04;51.30
46778;BME280;32536;47.128;8.746;2023-12-20T03:13:11;91718.94;;;9.03;50.71
46778;BME280;32536;47.128;8.746;2023-12-20T03:15:38;91718.91;;;9.07;51.18
46778;BME280;32536;47.128;8.746;2023-12-20T03:18:05;91713.56;;;9.07;50.46
46778;BME280;32536;47.128;8.746;2023-12-20T03:20:32;91721.97;;;9.09;50.93
46778;BME280;32536;47.128;8.746;2023-12-20T03:23:01;91721.56;;;9.10;50.34
46778;BME280;32536;47.128;8.746;2023-12-20T03:25:28;91725.75;;;9.11;50.91
46778;BME280;32536;47.128;8.746;2023-12-20T03:27:55;91742.16;;;9.17;50.47
46778;BME280;32536;47.128;8.746;2023-12-20T03:30:22;91736.44;;;9.15;49.92
46778;BME280;32536;47.128;8.746;2023-12-20T03:32:49;91744.84;;;9.13;50.14
46778;BME280;32536;47.128;8.746;2023-12-20T03:35:16;91741.06;;;9.07;49.65
46778;BME280;32536;47.128;8.746;2023-12-20T03:37:42;91743.75;;;9.07;50.37
46778;BME280;32536;47.128;8.746;2023-12-20T03:40:10;91749.09;;;9.07;50.65
46778;BME280;32536;47.128;8.746;2023-12-20T03:42:36;91762.44;;;9.07;50.43
46778;BME280;32536;47.128;8.746;2023-12-20T03:45:03;91760.22;;;8.99;50.01
46778;BME280;32536;47.128;8.746;2023-12-20T03:47:30;91762.16;;;8.91;49.97
46778;BME280;32536;47.128;8.746;2023-12-20T03:49:57;91762.16;;;8.87;50.73
46778;BME280;32536;47.128;8.746;2023-12-20T03:52:24;91761.06;;;8.77;49.84
46778;BME280;32536;47.128;8.746;2023-12-20T03:54:50;91769.53;;;8.65;49.95
46778;BME280;32536;47.128;8.746;2023-12-20T03:57:17;91776.84;;;8.46;50.65
46778;BME280;32536;47.128;8.746;2023-12-20T03:59:44;91762.00;;;8.27;50.77
46778;BME280;32536;47.128;8.746;2023-12-20T04:02:11;91766.25;;;7.99;51.17
46778;BME280;32536;47.128;8.746;2023-12-20T04:04:37;91755.25;;;7.90;51.81
46778;BME280;32536;47.128;8.746;2023-12-20T04:07:04;91756.00;;;7.80;51.65
46778;BME280;32536;47.128;8.746;2023-12-20T04:09:31;91743.84;;;7.72;52.13
46778;BME280;32536;47.128;8.746;2023-12-20T04:11:57;91737.00;;;7.67;52.74
46778;BME280;32536;47.128;8.746;2023-12-20T04:14:24;91739.28;;;7.61;52.57
46778;BME280;32536;47.128;8.746;2023-12-20T04:17:00;91740.81;;;7.55;52.91
46778;BME280;32536;47.128;8.746;2023-12-20T04:19:27;91736.25;;;7.56;53.00
46778;BME280;32536;47.128;8.746;2023-12-20T04:21:54;91732.06;;;7.58;52.27
46778;BME280;32536;47.128;8.746;2023-12-20T04:24:20;91739.28;;;7.54;52.79
46778;BME280;32536;47.128;8.746;2023-12-20T04:26:48;91734.72;;;7.51;52.64
46778;BME280;32536;47.128;8.746;2023-12-20T04:29:15;91739.28;;;7.50;52.92
46778;BME280;32536;47.128;8.746;2023-12-20T04:31:41;91737.41;;;7.51;52.80
46778;BME280;32536;47.128;8.746;2023-12-20T04:34:08;91740.06;;;7.51;52.94
46778;BME280;32536;47.128;8.746;2023-12-20T04:36:35;91745.00;;;7.52;53.76
46778;BME280;32536;47.128;8.746;2023-12-20T04:39:02;91752.63;;;7.50;53.48
46778;BME280;32536;47.128;8.746;2023-12-20T04:41:29;91761.00;;;7.49;53.97
46778;BME280;32536;47.128;8.746;2023-12-20T04:43:55;91764.44;;;7.46;53.90
46778;BME280;32536;47.128;8.746;2023-12-20T04:46:22;91776.25;;;7.45;54.25
46778;BME280;32536;47.128;8.746;2023-12-20T04:48:49;91768.59;;;7.40;54.73
46778;BME280;32536;47.128;8.746;2023-12-20T04:51:15;91776.97;;;7.38;55.05
46778;BME280;32536;47.128;8.746;2023-12-20T04:53:42;91784.22;;;7.30;55.67
46778;BME280;32536;47.128;8.746;2023-12-20T04:56:09;91791.81;;;7.21;56.29
46778;BME280;32536;47.128;8.746;2023-12-20T04:58:36;91789.16;;;7.17;56.13
46778;BME280;32536;47.128;8.746;2023-12-20T05:01:04;91797.50;;;7.12;56.63
46778;BME280;32536;47.128;8.746;2023-12-20T05:03:32;91790.63;;;7.00;55.85
46778;BME280;32536;47.128;8.746;2023-12-20T05:05:59;91797.09;;;7.03;55.16
46778;BME280;32536;47.128;8.746;2023-12-20T05:08:26;91808.91;;;6.95;56.22
46778;BME280;32536;47.128;8.746;2023-12-20T05:10:56;91810.75;;;6.80;58.05
46778;BME280;32536;47.128;8.746;2023-12-20T05:13:23;91824.78;;;6.66;57.08
46778;BME280;32536;47.128;8.746;2023-12-20T05:15:50;91821.31;;;6.54;57.39
46778;BME280;32536;47.128;8.746;2023-12-20T05:18:17;91826.94;;;6.35;58.59
46778;BME280;32536;47.128;8.746;2023-12-20T05:20:44;91831.88;;;6.36;57.28
46778;BME280;32536;47.128;8.746;2023-12-20T05:23:12;91828.78;;;6.27;58.56
46778;BME280;32536;47.128;8.746;2023-12-20T05:25:39;91837.09;;;6.18;57.99
46778;BME280;32536;47.128;8.746;2023-12-20T05:28:06;91843.94;;;6.19;57.82
46778;BME280;32536;47.128;8.746;2023-12-20T05:30:32;91844.69;;;6.20;57.53
46778;BME280;32536;47.128;8.746;2023-12-20T05:32:59;91844.31;;;6.14;57.85
46778;BME280;32536;47.128;8.746;2023-12-20T05:35:26;91849.94;;;6.09;58.44
46778;BME280;32536;47.128;8.746;2023-12-20T05:37:53;91853.00;;;6.11;57.43
46778;BME280;32536;47.128;8.746;2023-12-20T05:40:20;91850.75;;;6.13;57.89
46778;BME280;32536;47.128;8.746;2023-12-20T05:42:46;91847.00;;;6.21;56.65
46778;BME280;32536;47.128;8.746;2023-12-20T05:45:14;91857.69;;;6.32;56.67
46778;BME280;32536;47.128;8.746;2023-12-20T05:47:41;91850.13;;;6.38;56.79
46778;BME280;32536;47.128;8.746;2023-12-20T05:50:08;91849.78;;;6.47;56.20
46778;BME280;32536;47.128;8.746;2023-12-20T05:52:35;91848.69;;;6.55;55.75
46778;BME280;32536;47.128;8.746;2023-12-20T05:55:02;91845.31;;;6.62;55.38
46778;BME280;32536;47.128;8.746;2023-12-20T05:57:30;91852.53;;;6.68;55.45
46778;BME280;32536;47.128;8.746;2023-12-20T05:59:56;91860.97;;;6.78;55.78
46778;BME280;32536;47.128;8.746;2023-12-20T06:02:23;91856.81;;;6.84;55.46
46778;BME280;32536;47.128;8.746;2023-12-20T06:04:50;91851.09;;;6.89;55.66
46778;BME280;32536;47.128;8.746;2023-12-20T06:07:17;91849.59;;;6.95;54.99
46778;BME280;32536;47.128;8.746;2023-12-20T06:09:44;91854.56;;;7.00;55.80
46778;BME280;32536;47.128;8.746;2023-12-20T06:12:10;91865.63;;;7.06;55.59
46778;BME280;32536;47.128;8.746;2023-12-20T06:14:37;91866.38;;;7.10;55.53
46778;BME280;32536;47.128;8.746;2023-12-20T06:17:07;91868.31;;;7.13;54.75
46778;BME280;32536;47.128;8.746;2023-12-20T06:19:33;91869.47;;;7.16;55.40
46778;BME280;32536;47.128;8.746;2023-12-20T06:22:00;91863.75;;;7.17;55.17
46778;BME280;32536;47.128;8.746;2023-12-20T06:24:27;91875.19;;;7.18;55.14
46778;BME280;32536;47.128;8.746;2023-12-20T06:26:54;91867.94;;;7.22;54.92
46778;BME280;32536;47.128;8.746;2023-12-20T06:29:21;91858.06;;;7.26;55.39
46778;BME280;32536;47.128;8.746;2023-12-20T06:31:48;91855.03;;;7.28;55.18
46778;BME280;32536;47.128;8.746;2023-12-20T06:34:15;91853.50;;;7.30;55.59
46778;BME280;32536;47.128;8.746;2023-12-20T06:36:41;91853.88;;;7.36;55.37
46778;BME280;32536;47.128;8.746;2023-12-20T06:39:08;91842.88;;;7.37;55.32
46778;BME280;32536;47.128;8.746;2023-12-20T06:41:38;91831.44;;;7.37;55.11
46778;BME280;32536;47.128;8.746;2023-12-20T06:44:05;91825.34;;;7.33;54.59
46778;BME280;32536;47.128;8.746;2023-12-20T06:46:32;91833.69;;;7.24;55.30
46778;BME280;32536;47.128;8.746;2023-12-20T06:48:59;91856.16;;;7.19;54.96
46778;BME280;32536;47.128;8.746;2023-12-20T06:51:25;91862.59;;;7.15;55.31
46778;BME280;32536;47.128;8.746;2023-12-20T06:53:53;91867.53;;;7.13;55.52
46778;BME280;32536;47.128;8.746;2023-12-20T06:56:20;91881.63;;;7.10;55.14
46778;BME280;32536;47.128;8.746;2023-12-20T06:58:47;91885.03;;;7.10;55.38
46778;BME280;32536;47.128;8.746;2023-12-20T07:01:14;91885.81;;;7.11;55.23
46778;BME280;32536;47.128;8.746;2023-12-20T07:03:42;91880.09;;;7.09;54.90
46778;BME280;32536;47.128;8.746;2023-12-20T07:06:09;91888.06;;;7.05;55.19
46778;BME280;32536;47.128;8.746;2023-12-20T07:08:36;91892.63;;;7.01;55.05
46778;BME280;32536;47.128;8.746;2023-12-20T07:11:03;91899.03;;;6.89;55.38
46778;BME280;32536;47.128;8.746;2023-12-20T07:13:29;91895.94;;;6.80;55.90
46778;BME280;32536;47.128;8.746;2023-12-20T07:15:57;91891.38;;;6.77;55.78
46778;BME280;32536;47.128;8.746;2023-12-20T07:18:23;91887.53;;;6.67;56.42
46778;BME280;32536;47.128;8.746;2023-12-20T07:20:50;91895.53;;;6.67;56.19
46778;BME280;32536;47.128;8.746;2023-12-20T07:23:17;91901.25;;;6.76;56.04
46778;BME280;32536;47.128;8.746;2023-12-20T07:25:45;91891.78;;;6.86;55.74
46778;BME280;32536;47.128;8.746;2023-12-20T07:28:12;91893.34;;;6.94;56.22
46778;BME280;32536;47.128;8.746;2023-12-20T07:30:39;91896.03;;;7.01;55.55
46778;BME280;32536;47.128;8.746;2023-12-20T07:33:06;91885.03;;;7.10;56.08
46778;BME280;32536;47.128;8.746;2023-12-20T07:35:34;91894.56;;;7.15;56.33
46778;BME280;32536;47.128;8.746;2023-12-20T07:38:01;91888.88;;;7.20;55.77
46778;BME280;32536;47.128;8.746;2023-12-20T07:40:28;91884.69;;;7.22;56.25
46778;BME280;32536;47.128;8.746;2023-12-20T07:42:55;91904.13;;;7.23;56.08
46778;BME280;32536;47.128;8.746;2023-12-20T07:45:21;91897.25;;;7.22;56.14
46778;BME280;32536;47.128;8.746;2023-12-20T07:47:48;91898.78;;;7.23;56.43
46778;BME280;32536;47.128;8.746;2023-12-20T07:50:16;91904.88;;;7.27;55.64
46778;BME280;32536;47.128;8.746;2023-12-20T07:52:42;91906.41;;;7.32;55.40
46778;BME280;32536;47.128;8.746;2023-12-20T07:55:09;91910.25;;;7.38;55.20
46778;BME280;32536;47.128;8.746;2023-12-20T07:57:36;91894.66;;;7.40;55.83
46778;BME280;32536;47.128;8.746;2023-12-20T08:00:03;91895.81;;;7.46;55.57
46778;BME280;32536;47.128;8.746;2023-12-20T08:02:31;91902.66;;;7.51;55.20
46778;BME280;32536;47.128;8.746;2023-12-20T08:04:58;91912.94;;;7.52;55.15
46778;BME280;32536;47.128;8.746;2023-12-20T08:07:24;91912.19;;;7.52;55.62
46778;BME280;32536;47.128;8.746;2023-12-20T08:09:51;91917.91;;;7.54;55.42
46778;BME280;32536;47.128;8.746;2023-12-20T08:12:18;91925.88;;;7.54;55.67
46778;BME280;32536;47.128;8.746;2023-12-20T08:14:45;91925.88;;;7.54;55.76
46778;BME280;32536;47.128;8.746;2023-12-20T08:17:13;91932.00;;;7.58;55.32
46778;BME280;32536;47.128;8.746;2023-12-20T08:19:41;91935.06;;;7.64;55.34
46778;BME280;32536;47.128;8.746;2023-12-20T08:22:08;91937.72;;;7.64;55.39
46778;BME280;32536;47.128;8.746;2023-12-20T08:24:35;91929.72;;;7.60;55.69
46778;BME280;32536;47.128;8.746;2023-12-20T08:27:02;91930.88;;;7.59;55.12
46778;BME280;32536;47.128;8.746;2023-12-20T08:29:29;91921.72;;;7.60;55.33
46778;BME280;32536;47.128;8.746;2023-12-20T08:31:56;91939.63;;;7.63;55.21
46778;BME280;32536;47.128;8.746;2023-12-20T08:34:25;91923.63;;;7.56;56.05
46778;BME280;32536;47.128;8.746;2023-12-20T08:36:52;91923.22;;;7.50;55.45
46778;BME280;32536;47.128;8.746;2023-12-20T08:39:19;91922.84;;;7.52;55.28
46778;BME280;32536;47.128;8.746;2023-12-20T08:41:46;91921.34;;;7.51;55.53
46778;BME280;32536;47.128;8.746;2023-12-20T08:44:13;91930.84;;;7.52;55.28
46778;BME280;32536;47.128;8.746;2023-12-20T08:46:39;91931.22;;;7.54;55.35
46778;BME280;32536;47.128;8.746;2023-12-20T08:49:06;91934.28;;;7.56;56.09
46778;BME280;32536;47.128;8.746;2023-12-20T08:51:34;91942.28;;;7.52;55.49
46778;BME280;32536;47.128;8.746;2023-12-20T08:54:01;91937.69;;;7.49;56.30
46778;BME280;32536;47.128;8.746;2023-12-20T08:56:29;91932.75;;;7.51;56.23
46778;BME280;32536;47.128;8.746;2023-12-20T08:58:56;91932.00;;;7.55;56.16
46778;BME280;32536;47.128;8.746;2023-12-20T09:01:22;91931.63;;;7.56;55.85
46778;BME280;32536;47.128;8.746;2023-12-20T09:03:49;91931.22;;;7.54;55.76
46778;BME280;32536;47.128;8.746;2023-12-20T09:06:16;91928.94;;;7.56;55.95
46778;BME280;32536;47.128;8.746;2023-12-20T09:08:43;91929.72;;;7.60;55.85
46778;BME280;32536;47.128;8.746;2023-12-20T09:11:10;91933.94;;;7.68;55.69
46778;BME280;32536;47.128;8.746;2023-12-20T09:13:36;91932.03;;;7.73;56.05
46778;BME280;32536;47.128;8.746;2023-12-20T09:16:03;91916.41;;;7.75;56.05
46778;BME280;32536;47.128;8.746;2023-12-20T09:18:30;91913.00;;;7.78;56.05
46778;BME280;32536;47.128;8.746;2023-12-20T09:20:57;91913.00;;;7.78;55.73
46778;BME280;32536;47.128;8.746;2023-12-20T09:23:24;91910.69;;;7.80;55.78
46778;BME280;32536;47.128;8.746;2023-12-20T09:25:51;91909.19;;;7.82;56.17
46778;BME280;32536;47.128;8.746;2023-12-20T09:28:17;91903.88;;;7.82;56.10
46778;BME280;32536;47.128;8.746;2023-12-20T09:30:44;91904.63;;;7.83;55.93
46778;BME280;32536;47.128;8.746;2023-12-20T09:33:12;91914.88;;;7.81;55.86
46778;BME280;32536;47.128;8.746;2023-12-20T09:35:39;91920.59;;;7.72;56.44
46778;BME280;32536;47.128;8.746;2023-12-20T09:38:05;91919.81;;;7.61;57.04
46778;BME280;32536;47.128;8.746;2023-12-20T09:40:32;91923.59;;;7.49;56.97
46778;BME280;32536;47.128;8.746;2023-12-20T09:43:11;91927.38;;;7.41;59.11
46778;BME280;32536;47.128;8.746;2023-12-20T09:45:41;91931.56;;;7.42;57.13
46778;BME280;32536;47.128;8.746;2023-12-20T09:48:12;91919.03;;;7.42;57.18
46778;BME280;32536;47.128;8.746;2023-12-20T09:50:40;91921.28;;;7.40;57.08
46778;BME280;32536;47.128;8.746;2023-12-20T09:53:12;91919.00;;;7.35;57.63
46778;BME280;32536;47.128;8.746;2023-12-20T09:55:41;91919.75;;;7.35;57.53
46778;BME280;32536;47.128;8.746;2023-12-20T09:58:08;91922.41;;;7.35;57.59
46778;BME280;32536;47.128;8.746;2023-12-20T10:00:35;91919.38;;;7.33;57.77
46778;BME280;32536;47.128;8.746;2023-12-20T10:03:03;91911.75;;;7.28;57.39
46778;BME280;32536;47.128;8.746;2023-12-20T10:05:34;91902.59;;;7.29;57.46
46778;BME280;32536;47.128;8.746;2023-12-20T10:08:01;91896.91;;;7.31;57.47
46778;BME280;32536;47.128;8.746;2023-12-20T10:10:28;91893.47;;;7.30;57.23
46778;BME280;32536;47.128;8.746;2023-12-20T10:13:12;91904.53;;;7.29;58.69
46778;BME280;32536;47.128;8.746;2023-12-20T10:15:41;91912.16;;;7.34;57.44
46778;BME280;32536;47.128;8.746;2023-12-20T10:18:08;91911.75;;;7.35;58.25
46778;BME280;32536;47.128;8.746;2023-12-20T10:20:36;91914.41;;;7.32;57.59
46778;BME280;32536;47.128;8.746;2023-12-20T10:23:03;91903.75;;;7.32;57.77
46778;BME280;32536;47.128;8.746;2023-12-20T10:25:30;91901.50;;;7.34;57.67
46778;BME280;32536;47.128;8.746;2023-12-20T10:28:13;91897.69;;;7.35;59.06
46778;BME280;32536;47.128;8.746;2023-12-20T10:30:44;91899.19;;;7.40;57.60
46778;BME280;32536;47.128;8.746;2023-12-20T10:33:11;91899.59;;;7.38;57.58
46778;BME280;32536;47.128;8.746;2023-12-20T10:35:38;91889.31;;;7.36;58.07
46778;BME280;32536;47.128;8.746;2023-12-20T10:38:06;91892.34;;;7.35;58.04
46778;BME280;32536;47.128;8.746;2023-12-20T10:40:35;91894.22;;;7.31;58.05
46778;BME280;32536;47.128;8.746;2023-12-20T10:43:03;91883.91;;;7.18;59.35
46778;BME280;32536;47.128;8.746;2023-12-20T10:45:30;91886.97;;;7.13;57.91
46778;BME280;32536;47.128;8.746;2023-12-20T10:47:58;91893.41;;;7.12;58.40
46778;BME280;32536;47.128;8.746;2023-12-20T10:50:27;91882.34;;;7.07;59.27
46778;BME280;32536;47.128;8.746;2023-12-20T10:52:55;91875.88;;;7.00;58.93
46778;BME280;32536;47.128;8.746;2023-12-20T10:55:24;91870.94;;;6.99;58.94
46778;BME280;32536;47.128;8.746;2023-12-20T10:57:51;91862.16;;;6.91;59.52
46778;BME280;32536;47.128;8.746;2023-12-20T11:00:21;91865.94;;;6.90;59.36
46778;BME280;32536;47.128;8.746;2023-12-20T11:02:50;91859.09;;;6.89;59.14
46778;BME280;32536;47.128;8.746;2023-12-20T11:05:25;91860.25;;;6.92;60.54
46778;BME280;32536;47.128;8.746;2023-12-20T11:08:05;91850.38;;;6.96;59.64
46778;BME280;32536;47.128;8.746;2023-12-20T11:10:51;91851.09;;;6.89;61.19
46778;BME280;32536;47.128;8.746;2023-12-20T11:13:57;91848.81;;;6.84;59.48
46778;BME280;32536;47.128;8.746;2023-12-20T11:16:40;91846.16;;;6.87;59.14
46778;BME280;32536;47.128;8.746;2023-12-20T11:19:07;91842.38;;;6.92;59.04
46778;BME280;32536;47.128;8.746;2023-12-20T11:21:34;91841.22;;;6.89;59.59
46778;BME280;32536;47.128;8.746;2023-12-20T11:24:02;91835.47;;;6.80;59.39
46778;BME280;32536;47.128;8.746;2023-12-20T11:26:30;91845.34;;;6.69;60.24
46778;BME280;32536;47.128;8.746;2023-12-20T11:29:33;91835.03;;;6.67;61.74
46778;BME280;32536;47.128;8.746;2023-12-20T11:32:27;91835.03;;;6.64;60.46
46778;BME280;32536;47.128;8.746;2023-12-20T11:34:51;91833.13;;;6.57;60.06
46778;BME280;32536;47.128;8.746;2023-12-20T11:37:40;91831.97;;;6.54;60.04
46778;BME280;32536;47.128;8.746;2023-12-20T11:40:17;91844.88;;;6.56;62.43
46778;BME280;32536;47.128;8.746;2023-12-20T11:42:45;91838.06;;;6.59;59.86
46778;BME280;32536;47.128;8.746;2023-12-20T11:45:19;91835.78;;;6.61;60.57
46778;BME280;32536;47.128;8.746;2023-12-20T11:47:49;91829.34;;;6.62;60.40
46778;BME280;32536;47.128;8.746;2023-12-20T11:50:20;91840.38;;;6.67;60.17
46778;BME280;32536;47.128;8.746;2023-12-20T11:52:48;91838.84;;;6.70;60.08
46778;BME280;32536;47.128;8.746;2023-12-20T11:55:17;91842.28;;;6.70;60.49
46778;BME280;32536;47.128;8.746;2023-12-20T11:57:44;91829.34;;;6.72;59.52
46778;BME280;32536;47.128;8.746;2023-12-20T12:00:11;91823.69;;;6.78;59.75
46778;BME280;32536;47.128;8.746;2023-12-20T12:02:40;91832.44;;;6.85;58.90
46778;BME280;32536;47.128;8.746;2023-12-20T12:05:07;91832.09;;;6.94;58.98
46778;BME280;32536;47.128;8.746;2023-12-20T12:07:34;91835.19;;;7.03;58.91
46778;BME280;32536;47.128;8.746;2023-12-20T12:10:02;91825.31;;;7.15;58.45
46778;BME280;32536;47.128;8.746;2023-12-20T12:12:32;91822.25;;;7.24;58.22
46778;BME280;32536;47.128;8.746;2023-12-20T12:14:59;91818.47;;;7.28;57.69
46778;BME280;32536;47.128;8.746;2023-12-20T12:17:28;91816.97;;;7.34;58.18
46778;BME280;32536;47.128;8.746;2023-12-20T12:20:05;91815.06;;;7.35;58.76
46778;BME280;32536;47.128;8.746;2023-12-20T12:22:33;91824.56;;;7.36;58.65
46778;BME280;32536;47.128;8.746;2023-12-20T12:25:12;91821.16;;;7.35;59.07
46778;BME280;32536;47.128;8.746;2023-12-20T12:27:41;91816.56;;;7.36;58.66
46778;BME280;32536;47.128;8.746;2023-12-20T12:30:08;91821.16;;;7.35;57.92
46778;BME280;32536;47.128;8.746;2023-12-20T12:32:36;91815.06;;;7.39;58.47
46778;BME280;32536;47.128;8.746;2023-12-20T12:35:04;91816.22;;;7.41;58.54
46778;BME280;32536;47.128;8.746;2023-12-20T12:37:38;91811.63;;;7.45;57.86
46778;BME280;32536;47.128;8.746;2023-12-20T12:40:10;91811.66;;;7.49;57.83
46778;BME280;32536;47.128;8.746;2023-12-20T12:42:42;91817.72;;;7.57;57.85
46778;BME280;32536;47.128;8.746;2023-12-20T12:45:10;91818.50;;;7.64;57.96
46778;BME280;32536;47.128;8.746;2023-12-20T12:47:38;91814.72;;;7.69;57.89
46778;BME280;32536;47.128;8.746;2023-12-20T12:50:05;91803.66;;;7.71;57.86
46778;BME280;32536;47.128;8.746;2023-12-20T12:52:33;91809.34;;;7.76;57.77
46778;BME280;32536;47.128;8.746;2023-12-20T12:55:01;91815.47;;;7.80;57.49
46778;BME280;32536;47.128;8.746;2023-12-20T12:57:29;91810.50;;;7.79;57.70
46778;BME280;32536;47.128;8.746;2023-12-20T12:59:55;91810.88;;;7.77;57.42
46778;BME280;32536;47.128;8.746;2023-12-20T13:02:24;91819.25;;;7.79;57.48
46778;BME280;32536;47.128;8.746;2023-12-20T13:04:51;91822.31;;;7.81;57.11
46778;BME280;32536;47.128;8.746;2023-12-20T13:07:18;91823.47;;;7.84;57.03
46778;BME280;32536;47.128;8.746;2023-12-20T13:09:44;91826.53;;;7.82;57.45
46778;BME280;32536;47.128;8.746;2023-12-20T13:12:11;91831.06;;;7.82;57.24
46778;BME280;32536;47.128;8.746;2023-12-20T13:14:38;91831.47;;;7.80;57.32